Aviation Digital Data Service (ADDS)

Output produced by METARs form (2155 UTC 19 February 2018)
found at http://www.aviationweather.gov/adds/metars/
 
HADR 191700Z 34008KT 9000 HZ FEZ028 SCT058 26/12 Q1018
TAF HADR 191530Z 1918/2024 18004KT 9999 BKN030 SCT080 
     BECMG 1918/1921 09004KT 
     BECMG 2003/2009 32004KT
       
HAAB 191600Z 09010KT 9999 SCT025 19/08 Q1024
TAF HAAB 191530Z 1918/2024 09005KT 9999 BKN027 SCT080 
     BECMG 1918/1921 BKN025 RA 
     TEMPO 2007/2010 12008KT RA 
     TEMPO 2013/2016 12008KT RA